sensor_id;sensor_type;location;lat;lon;timestamp;P1;durP1;ratioP1;P2;durP2;ratioP2
53253;SDS011;39148;53.332;6.922;2023-02-08T00:02:14;13.15;;;9.40;;
53253;SDS011;39148;53.332;6.922;2023-02-08T00:04:40;13.43;;;9.65;;
53253;SDS011;39148;53.332;6.922;2023-02-08T00:07:06;12.77;;;9.55;;
53253;SDS011;39148;53.332;6.922;2023-02-08T00:09:32;12.15;;;8.90;;
53253;SDS011;39148;53.332;6.922;2023-02-08T00:11:57;12.45;;;9.05;;
53253;SDS011;39148;53.332;6.922;2023-02-08T00:14:24;11.90;;;8.55;;
53253;SDS011;39148;53.332;6.922;2023-02-08T00:16:49;13.25;;;9.70;;
53253;SDS011;39148;53.332;6.922;2023-02-08T00:19:15;16.85;;;10.25;;
53253;SDS011;39148;53.332;6.922;2023-02-08T00:21:41;13.07;;;9.13;;
53253;SDS011;39148;53.332;6.922;2023-02-08T00:24:07;11.65;;;9.05;;
53253;SDS011;39148;53.332;6.922;2023-02-08T00:26:33;11.88;;;9.27;;
53253;SDS011;39148;53.332;6.922;2023-02-08T00:28:59;13.45;;;9.40;;
53253;SDS011;39148;53.332;6.922;2023-02-08T00:31:25;12.88;;;9.10;;
53253;SDS011;39148;53.332;6.922;2023-02-08T00:33:50;13.52;;;9.38;;
53253;SDS011;39148;53.332;6.922;2023-02-08T00:36:16;13.45;;;9.15;;
53253;SDS011;39148;53.332;6.922;2023-02-08T00:38:42;13.07;;;9.35;;
53253;SDS011;39148;53.332;6.922;2023-02-08T00:41:08;11.95;;;8.88;;
53253;SDS011;39148;53.332;6.922;2023-02-08T00:43:34;12.52;;;9.48;;
53253;SDS011;39148;53.332;6.922;2023-02-08T00:46:00;12.85;;;9.15;;
53253;SDS011;39148;53.332;6.922;2023-02-08T00:48:26;12.70;;;9.45;;
53253;SDS011;39148;53.332;6.922;2023-02-08T00:53:28;12.60;;;9.40;;
53253;SDS011;39148;53.332;6.922;2023-02-08T00:55:54;12.50;;;9.23;;
53253;SDS011;39148;53.332;6.922;2023-02-08T00:58:20;12.55;;;8.85;;
53253;SDS011;39148;53.332;6.922;2023-02-08T01:00:49;13.43;;;9.13;;
53253;SDS011;39148;53.332;6.922;2023-02-08T01:03:16;12.95;;;8.70;;
53253;SDS011;39148;53.332;6.922;2023-02-08T01:05:42;13.00;;;9.20;;
53253;SDS011;39148;53.332;6.922;2023-02-08T01:08:08;13.88;;;9.48;;
53253;SDS011;39148;53.332;6.922;2023-02-08T01:10:34;13.13;;;9.38;;
53253;SDS011;39148;53.332;6.922;2023-02-08T01:13:00;12.70;;;9.35;;
53253;SDS011;39148;53.332;6.922;2023-02-08T01:15:27;11.20;;;8.50;;
53253;SDS011;39148;53.332;6.922;2023-02-08T01:17:53;13.13;;;9.25;;
53253;SDS011;39148;53.332;6.922;2023-02-08T01:20:20;12.27;;;8.88;;
53253;SDS011;39148;53.332;6.922;2023-02-08T01:22:46;11.88;;;8.38;;
53253;SDS011;39148;53.332;6.922;2023-02-08T01:25:11;12.23;;;8.60;;
53253;SDS011;39148;53.332;6.922;2023-02-08T01:27:37;13.57;;;9.57;;
53253;SDS011;39148;53.332;6.922;2023-02-08T01:30:03;11.93;;;8.38;;
53253;SDS011;39148;53.332;6.922;2023-02-08T01:32:29;12.10;;;9.05;;
53253;SDS011;39148;53.332;6.922;2023-02-08T01:34:55;12.57;;;9.23;;
53253;SDS011;39148;53.332;6.922;2023-02-08T01:37:21;11.40;;;8.50;;
53253;SDS011;39148;53.332;6.922;2023-02-08T01:39:47;12.30;;;8.65;;
53253;SDS011;39148;53.332;6.922;2023-02-08T01:42:13;13.70;;;8.88;;
53253;SDS011;39148;53.332;6.922;2023-02-08T01:47:43;14.73;;;9.18;;
53253;SDS011;39148;53.332;6.922;2023-02-08T01:50:10;12.23;;;8.88;;
53253;SDS011;39148;53.332;6.922;2023-02-08T01:52:36;11.13;;;8.52;;
53253;SDS011;39148;53.332;6.922;2023-02-08T01:55:08;12.02;;;8.90;;
53253;SDS011;39148;53.332;6.922;2023-02-08T01:57:39;11.90;;;9.05;;
53253;SDS011;39148;53.332;6.922;2023-02-08T02:00:07;12.48;;;9.32;;
53253;SDS011;39148;53.332;6.922;2023-02-08T02:02:47;14.83;;;9.27;;
53253;SDS011;39148;53.332;6.922;2023-02-08T02:05:21;13.00;;;9.15;;
53253;SDS011;39148;53.332;6.922;2023-02-08T02:07:48;11.93;;;9.13;;
53253;SDS011;39148;53.332;6.922;2023-02-08T02:10:17;11.93;;;8.73;;
53253;SDS011;39148;53.332;6.922;2023-02-08T02:12:54;13.52;;;9.20;;
53253;SDS011;39148;53.332;6.922;2023-02-08T02:15:21;11.02;;;8.30;;
53253;SDS011;39148;53.332;6.922;2023-02-08T02:17:47;13.77;;;9.77;;
53253;SDS011;39148;53.332;6.922;2023-02-08T02:20:35;11.73;;;9.00;;
53253;SDS011;39148;53.332;6.922;2023-02-08T02:23:27;11.82;;;8.63;;
53253;SDS011;39148;53.332;6.922;2023-02-08T02:36:18;12.80;;;9.65;;
53253;SDS011;39148;53.332;6.922;2023-02-08T02:44:35;12.88;;;8.73;;
53253;SDS011;39148;53.332;6.922;2023-02-08T02:47:23;12.70;;;9.82;;
53253;SDS011;39148;53.332;6.922;2023-02-08T02:52:38;12.77;;;9.63;;
53253;SDS011;39148;53.332;6.922;2023-02-08T02:55:11;11.90;;;9.50;;
53253;SDS011;39148;53.332;6.922;2023-02-08T02:57:40;11.82;;;8.88;;
53253;SDS011;39148;53.332;6.922;2023-02-08T03:00:09;13.48;;;9.50;;
53253;SDS011;39148;53.332;6.922;2023-02-08T03:02:38;13.50;;;9.77;;
53253;SDS011;39148;53.332;6.922;2023-02-08T03:05:05;13.52;;;9.25;;
53253;SDS011;39148;53.332;6.922;2023-02-08T03:10:38;12.73;;;9.38;;
53253;SDS011;39148;53.332;6.922;2023-02-08T03:16:25;13.43;;;9.85;;
53253;SDS011;39148;53.332;6.922;2023-02-08T03:26:55;13.45;;;10.20;;
53253;SDS011;39148;53.332;6.922;2023-02-08T03:32:39;13.98;;;10.13;;
53253;SDS011;39148;53.332;6.922;2023-02-08T03:35:37;12.85;;;9.20;;
53253;SDS011;39148;53.332;6.922;2023-02-08T03:38:20;13.27;;;10.20;;
53253;SDS011;39148;53.332;6.922;2023-02-08T03:40:59;11.93;;;9.45;;
53253;SDS011;39148;53.332;6.922;2023-02-08T03:43:39;14.38;;;10.93;;
53253;SDS011;39148;53.332;6.922;2023-02-08T03:46:16;12.68;;;9.95;;
53253;SDS011;39148;53.332;6.922;2023-02-08T03:48:50;15.82;;;11.82;;
53253;SDS011;39148;53.332;6.922;2023-02-08T03:51:22;13.90;;;10.23;;
53253;SDS011;39148;53.332;6.922;2023-02-08T03:53:50;13.80;;;10.55;;
53253;SDS011;39148;53.332;6.922;2023-02-08T03:56:27;14.98;;;10.98;;
53253;SDS011;39148;53.332;6.922;2023-02-08T03:59:00;12.93;;;10.18;;
53253;SDS011;39148;53.332;6.922;2023-02-08T04:01:41;13.48;;;10.10;;
53253;SDS011;39148;53.332;6.922;2023-02-08T04:04:07;13.68;;;10.45;;
53253;SDS011;39148;53.332;6.922;2023-02-08T04:06:35;14.07;;;10.90;;
53253;SDS011;39148;53.332;6.922;2023-02-08T04:09:00;13.57;;;10.10;;
53253;SDS011;39148;53.332;6.922;2023-02-08T04:11:26;13.07;;;10.50;;
53253;SDS011;39148;53.332;6.922;2023-02-08T04:13:52;13.73;;;10.27;;
53253;SDS011;39148;53.332;6.922;2023-02-08T04:16:18;14.35;;;11.02;;
53253;SDS011;39148;53.332;6.922;2023-02-08T04:18:44;13.88;;;10.75;;
53253;SDS011;39148;53.332;6.922;2023-02-08T04:21:09;13.77;;;10.45;;
53253;SDS011;39148;53.332;6.922;2023-02-08T04:23:36;15.07;;;11.52;;
53253;SDS011;39148;53.332;6.922;2023-02-08T04:26:02;14.25;;;10.57;;
53253;SDS011;39148;53.332;6.922;2023-02-08T04:28:28;14.13;;;10.70;;
53253;SDS011;39148;53.332;6.922;2023-02-08T04:30:54;15.13;;;11.18;;
53253;SDS011;39148;53.332;6.922;2023-02-08T04:33:23;13.60;;;10.45;;
53253;SDS011;39148;53.332;6.922;2023-02-08T04:35:49;14.88;;;11.23;;
53253;SDS011;39148;53.332;6.922;2023-02-08T04:38:15;15.05;;;11.80;;
53253;SDS011;39148;53.332;6.922;2023-02-08T04:40:41;15.50;;;11.32;;
53253;SDS011;39148;53.332;6.922;2023-02-08T04:43:07;14.88;;;12.27;;
53253;SDS011;39148;53.332;6.922;2023-02-08T04:45:32;15.32;;;11.77;;
53253;SDS011;39148;53.332;6.922;2023-02-08T04:48:01;15.30;;;11.85;;
53253;SDS011;39148;53.332;6.922;2023-02-08T04:50:27;14.95;;;11.20;;
53253;SDS011;39148;53.332;6.922;2023-02-08T04:52:54;15.40;;;11.20;;
53253;SDS011;39148;53.332;6.922;2023-02-08T04:55:20;14.32;;;11.25;;
53253;SDS011;39148;53.332;6.922;2023-02-08T04:57:46;15.07;;;11.20;;
53253;SDS011;39148;53.332;6.922;2023-02-08T05:00:11;15.15;;;11.75;;
53253;SDS011;39148;53.332;6.922;2023-02-08T05:02:38;15.60;;;11.70;;
53253;SDS011;39148;53.332;6.922;2023-02-08T05:05:04;15.27;;;12.00;;
53253;SDS011;39148;53.332;6.922;2023-02-08T05:07:30;14.43;;;11.48;;
53253;SDS011;39148;53.332;6.922;2023-02-08T05:09:56;15.52;;;11.70;;
53253;SDS011;39148;53.332;6.922;2023-02-08T05:12:21;14.70;;;11.18;;
53253;SDS011;39148;53.332;6.922;2023-02-08T05:14:47;16.92;;;11.52;;
53253;SDS011;39148;53.332;6.922;2023-02-08T05:17:14;16.13;;;11.93;;
53253;SDS011;39148;53.332;6.922;2023-02-08T05:19:39;13.98;;;10.82;;
53253;SDS011;39148;53.332;6.922;2023-02-08T05:22:05;15.88;;;11.88;;
53253;SDS011;39148;53.332;6.922;2023-02-08T05:24:31;15.45;;;11.98;;
53253;SDS011;39148;53.332;6.922;2023-02-08T05:26:57;15.63;;;12.02;;
53253;SDS011;39148;53.332;6.922;2023-02-08T05:29:23;16.30;;;12.40;;
53253;SDS011;39148;53.332;6.922;2023-02-08T05:31:49;15.75;;;11.68;;
53253;SDS011;39148;53.332;6.922;2023-02-08T05:34:14;15.77;;;11.73;;
53253;SDS011;39148;53.332;6.922;2023-02-08T05:36:40;16.08;;;12.18;;
53253;SDS011;39148;53.332;6.922;2023-02-08T05:39:06;15.95;;;12.57;;
53253;SDS011;39148;53.332;6.922;2023-02-08T05:41:32;15.02;;;12.05;;
53253;SDS011;39148;53.332;6.922;2023-02-08T05:43:58;15.50;;;12.07;;
53253;SDS011;39148;53.332;6.922;2023-02-08T05:46:23;16.67;;;12.38;;
53253;SDS011;39148;53.332;6.922;2023-02-08T05:48:50;15.13;;;11.82;;
53253;SDS011;39148;53.332;6.922;2023-02-08T05:51:16;16.40;;;12.15;;
53253;SDS011;39148;53.332;6.922;2023-02-08T05:53:41;15.85;;;11.82;;
53253;SDS011;39148;53.332;6.922;2023-02-08T05:56:08;15.32;;;12.35;;
53253;SDS011;39148;53.332;6.922;2023-02-08T05:58:34;16.02;;;12.18;;
53253;SDS011;39148;53.332;6.922;2023-02-08T06:01:00;17.35;;;12.82;;
53253;SDS011;39148;53.332;6.922;2023-02-08T06:03:26;16.88;;;12.35;;
53253;SDS011;39148;53.332;6.922;2023-02-08T06:05:52;15.85;;;12.35;;
53253;SDS011;39148;53.332;6.922;2023-02-08T06:08:18;19.35;;;12.65;;
53253;SDS011;39148;53.332;6.922;2023-02-08T06:10:46;16.70;;;13.02;;
53253;SDS011;39148;53.332;6.922;2023-02-08T06:13:13;15.02;;;11.60;;
53253;SDS011;39148;53.332;6.922;2023-02-08T06:15:39;17.23;;;12.75;;
53253;SDS011;39148;53.332;6.922;2023-02-08T06:18:05;16.70;;;12.82;;
53253;SDS011;39148;53.332;6.922;2023-02-08T06:20:33;17.10;;;13.43;;
53253;SDS011;39148;53.332;6.922;2023-02-08T06:22:59;16.42;;;12.20;;
53253;SDS011;39148;53.332;6.922;2023-02-08T06:25:25;17.35;;;12.35;;
53253;SDS011;39148;53.332;6.922;2023-02-08T06:27:51;15.18;;;11.82;;
53253;SDS011;39148;53.332;6.922;2023-02-08T06:30:17;16.85;;;12.70;;
53253;SDS011;39148;53.332;6.922;2023-02-08T06:32:43;17.27;;;13.38;;
53253;SDS011;39148;53.332;6.922;2023-02-08T06:35:09;17.17;;;13.80;;
53253;SDS011;39148;53.332;6.922;2023-02-08T06:37:35;17.50;;;13.25;;
53253;SDS011;39148;53.332;6.922;2023-02-08T06:40:01;17.77;;;13.40;;
53253;SDS011;39148;53.332;6.922;2023-02-08T06:42:28;17.17;;;12.93;;
53253;SDS011;39148;53.332;6.922;2023-02-08T06:44:54;17.35;;;13.68;;
53253;SDS011;39148;53.332;6.922;2023-02-08T06:47:22;17.85;;;13.70;;
53253;SDS011;39148;53.332;6.922;2023-02-08T06:49:48;17.98;;;13.40;;
53253;SDS011;39148;53.332;6.922;2023-02-08T06:52:14;17.35;;;14.05;;
53253;SDS011;39148;53.332;6.922;2023-02-08T06:54:40;16.77;;;13.10;;
53253;SDS011;39148;53.332;6.922;2023-02-08T06:57:07;19.13;;;13.95;;
53253;SDS011;39148;53.332;6.922;2023-02-08T06:59:33;16.90;;;13.80;;
53253;SDS011;39148;53.332;6.922;2023-02-08T07:01:59;17.05;;;13.27;;
53253;SDS011;39148;53.332;6.922;2023-02-08T07:04:25;17.48;;;13.32;;
53253;SDS011;39148;53.332;6.922;2023-02-08T07:06:51;17.17;;;13.68;;
53253;SDS011;39148;53.332;6.922;2023-02-08T07:09:17;18.67;;;13.93;;
53253;SDS011;39148;53.332;6.922;2023-02-08T07:11:43;19.15;;;13.85;;
53253;SDS011;39148;53.332;6.922;2023-02-08T07:14:13;18.42;;;14.27;;
53253;SDS011;39148;53.332;6.922;2023-02-08T07:16:39;17.67;;;13.80;;
53253;SDS011;39148;53.332;6.922;2023-02-08T07:19:05;17.58;;;14.00;;
53253;SDS011;39148;53.332;6.922;2023-02-08T07:21:31;18.30;;;14.30;;
53253;SDS011;39148;53.332;6.922;2023-02-08T07:23:57;19.00;;;14.70;;
53253;SDS011;39148;53.332;6.922;2023-02-08T07:26:23;18.33;;;14.13;;
53253;SDS011;39148;53.332;6.922;2023-02-08T07:28:49;19.55;;;14.18;;
53253;SDS011;39148;53.332;6.922;2023-02-08T07:31:15;18.60;;;14.18;;
53253;SDS011;39148;53.332;6.922;2023-02-08T07:33:42;18.27;;;13.88;;
53253;SDS011;39148;53.332;6.922;2023-02-08T07:36:08;18.15;;;13.77;;
53253;SDS011;39148;53.332;6.922;2023-02-08T07:38:35;19.30;;;14.40;;
53253;SDS011;39148;53.332;6.922;2023-02-08T07:41:05;21.30;;;14.80;;
53253;SDS011;39148;53.332;6.922;2023-02-08T07:43:32;17.90;;;13.70;;
53253;SDS011;39148;53.332;6.922;2023-02-08T07:46:09;19.02;;;13.98;;
53253;SDS011;39148;53.332;6.922;2023-02-08T07:48:40;18.70;;;14.03;;
53253;SDS011;39148;53.332;6.922;2023-02-08T07:51:07;18.10;;;14.35;;
53253;SDS011;39148;53.332;6.922;2023-02-08T07:53:33;19.52;;;14.13;;
53253;SDS011;39148;53.332;6.922;2023-02-08T07:55:59;19.13;;;14.55;;
53253;SDS011;39148;53.332;6.922;2023-02-08T07:58:25;17.58;;;13.98;;
53253;SDS011;39148;53.332;6.922;2023-02-08T08:00:52;19.65;;;14.02;;
53253;SDS011;39148;53.332;6.922;2023-02-08T08:03:18;19.15;;;14.70;;
53253;SDS011;39148;53.332;6.922;2023-02-08T08:05:44;18.80;;;14.05;;
53253;SDS011;39148;53.332;6.922;2023-02-08T08:08:10;18.13;;;14.07;;
53253;SDS011;39148;53.332;6.922;2023-02-08T08:10:37;17.38;;;13.35;;
53253;SDS011;39148;53.332;6.922;2023-02-08T08:13:03;18.58;;;13.80;;
53253;SDS011;39148;53.332;6.922;2023-02-08T08:15:29;17.88;;;13.68;;
53253;SDS011;39148;53.332;6.922;2023-02-08T08:17:55;18.58;;;13.63;;
53253;SDS011;39148;53.332;6.922;2023-02-08T08:20:22;18.92;;;14.23;;
53253;SDS011;39148;53.332;6.922;2023-02-08T08:22:48;19.80;;;13.32;;
53253;SDS011;39148;53.332;6.922;2023-02-08T08:25:14;18.73;;;13.60;;
53253;SDS011;39148;53.332;6.922;2023-02-08T08:27:40;18.52;;;14.30;;
53253;SDS011;39148;53.332;6.922;2023-02-08T08:30:07;19.00;;;14.40;;
53253;SDS011;39148;53.332;6.922;2023-02-08T08:32:34;19.65;;;13.48;;
53253;SDS011;39148;53.332;6.922;2023-02-08T08:35:00;20.08;;;14.32;;
53253;SDS011;39148;53.332;6.922;2023-02-08T08:37:26;18.52;;;14.00;;
53253;SDS011;39148;53.332;6.922;2023-02-08T08:39:52;19.35;;;13.82;;
53253;SDS011;39148;53.332;6.922;2023-02-08T08:42:18;19.85;;;14.50;;
53253;SDS011;39148;53.332;6.922;2023-02-08T08:44:45;18.70;;;13.65;;
53253;SDS011;39148;53.332;6.922;2023-02-08T08:47:11;19.40;;;14.07;;
53253;SDS011;39148;53.332;6.922;2023-02-08T08:49:37;20.77;;;14.60;;
53253;SDS011;39148;53.332;6.922;2023-02-08T08:52:03;20.17;;;14.55;;
53253;SDS011;39148;53.332;6.922;2023-02-08T08:54:32;19.63;;;14.43;;
53253;SDS011;39148;53.332;6.922;2023-02-08T08:56:58;19.70;;;14.70;;
53253;SDS011;39148;53.332;6.922;2023-02-08T08:59:24;18.73;;;13.63;;
53253;SDS011;39148;53.332;6.922;2023-02-08T09:01:50;19.98;;;14.35;;
53253;SDS011;39148;53.332;6.922;2023-02-08T09:04:16;19.20;;;13.68;;
53253;SDS011;39148;53.332;6.922;2023-02-08T09:06:42;18.60;;;14.35;;
53253;SDS011;39148;53.332;6.922;2023-02-08T09:09:08;20.02;;;14.15;;
53253;SDS011;39148;53.332;6.922;2023-02-08T09:11:34;21.15;;;14.98;;
53253;SDS011;39148;53.332;6.922;2023-02-08T09:14:01;20.48;;;13.45;;
53253;SDS011;39148;53.332;6.922;2023-02-08T09:16:27;18.63;;;14.63;;
53253;SDS011;39148;53.332;6.922;2023-02-08T09:18:53;18.10;;;13.90;;
53253;SDS011;39148;53.332;6.922;2023-02-08T09:21:20;19.13;;;13.85;;
53253;SDS011;39148;53.332;6.922;2023-02-08T09:23:49;19.33;;;14.13;;
53253;SDS011;39148;53.332;6.922;2023-02-08T09:26:15;19.13;;;13.90;;
53253;SDS011;39148;53.332;6.922;2023-02-08T09:28:42;19.08;;;14.70;;
53253;SDS011;39148;53.332;6.922;2023-02-08T09:31:12;21.40;;;14.68;;
53253;SDS011;39148;53.332;6.922;2023-02-08T09:33:40;22.02;;;14.23;;
53253;SDS011;39148;53.332;6.922;2023-02-08T09:36:05;19.15;;;14.52;;
53253;SDS011;39148;53.332;6.922;2023-02-08T09:38:32;20.60;;;14.75;;
53253;SDS011;39148;53.332;6.922;2023-02-08T09:41:20;18.50;;;13.27;;
53253;SDS011;39148;53.332;6.922;2023-02-08T09:44:20;19.15;;;14.25;;
53253;SDS011;39148;53.332;6.922;2023-02-08T09:46:50;16.92;;;13.25;;
53253;SDS011;39148;53.332;6.922;2023-02-08T09:49:25;19.67;;;14.65;;
53253;SDS011;39148;53.332;6.922;2023-02-08T09:51:54;19.13;;;13.88;;
53253;SDS011;39148;53.332;6.922;2023-02-08T09:56:50;18.50;;;13.73;;
53253;SDS011;39148;53.332;6.922;2023-02-08T09:59:21;20.10;;;13.85;;
53253;SDS011;39148;53.332;6.922;2023-02-08T10:01:49;20.15;;;13.90;;
53253;SDS011;39148;53.332;6.922;2023-02-08T10:04:29;17.08;;;12.68;;
53253;SDS011;39148;53.332;6.922;2023-02-08T10:07:01;17.88;;;12.93;;
53253;SDS011;39148;53.332;6.922;2023-02-08T10:09:26;18.65;;;13.18;;
53253;SDS011;39148;53.332;6.922;2023-02-08T10:35:29;18.65;;;13.15;;
53253;SDS011;39148;53.332;6.922;2023-02-08T10:38:01;19.42;;;13.60;;
53253;SDS011;39148;53.332;6.922;2023-02-08T10:40:54;19.02;;;13.75;;
53253;SDS011;39148;53.332;6.922;2023-02-08T10:51:18;18.85;;;13.32;;
53253;SDS011;39148;53.332;6.922;2023-02-08T10:53:45;18.13;;;12.90;;
53253;SDS011;39148;53.332;6.922;2023-02-08T10:56:34;17.90;;;12.95;;
53253;SDS011;39148;53.332;6.922;2023-02-08T10:58:58;19.38;;;12.82;;
53253;SDS011;39148;53.332;6.922;2023-02-08T11:01:26;17.60;;;12.95;;
53253;SDS011;39148;53.332;6.922;2023-02-08T11:04:03;17.95;;;12.77;;
53253;SDS011;39148;53.332;6.922;2023-02-08T11:06:31;17.95;;;13.10;;
53253;SDS011;39148;53.332;6.922;2023-02-08T11:08:57;20.33;;;13.88;;
53253;SDS011;39148;53.332;6.922;2023-02-08T11:11:24;16.65;;;12.45;;
53253;SDS011;39148;53.332;6.922;2023-02-08T11:13:51;17.38;;;12.82;;
53253;SDS011;39148;53.332;6.922;2023-02-08T11:16:24;18.65;;;12.52;;
53253;SDS011;39148;53.332;6.922;2023-02-08T11:18:52;17.88;;;12.63;;
53253;SDS011;39148;53.332;6.922;2023-02-08T11:23:59;19.35;;;13.35;;
53253;SDS011;39148;53.332;6.922;2023-02-08T11:29:11;17.13;;;12.10;;
53253;SDS011;39148;53.332;6.922;2023-02-08T11:31:38;17.85;;;13.13;;
53253;SDS011;39148;53.332;6.922;2023-02-08T11:34:12;16.80;;;12.20;;
53253;SDS011;39148;53.332;6.922;2023-02-08T11:36:44;19.83;;;12.90;;
53253;SDS011;39148;53.332;6.922;2023-02-08T11:39:15;18.48;;;13.48;;
53253;SDS011;39148;53.332;6.922;2023-02-08T11:41:43;17.38;;;12.45;;
53253;SDS011;39148;53.332;6.922;2023-02-08T11:44:11;19.95;;;12.55;;
53253;SDS011;39148;53.332;6.922;2023-02-08T11:47:10;18.77;;;12.77;;
53253;SDS011;39148;53.332;6.922;2023-02-08T11:49:41;18.13;;;12.90;;
53253;SDS011;39148;53.332;6.922;2023-02-08T11:52:18;18.05;;;13.27;;
53253;SDS011;39148;53.332;6.922;2023-02-08T11:57:16;16.50;;;11.55;;
53253;SDS011;39148;53.332;6.922;2023-02-08T11:59:47;17.77;;;12.60;;
53253;SDS011;39148;53.332;6.922;2023-02-08T12:04:51;16.30;;;11.77;;
53253;SDS011;39148;53.332;6.922;2023-02-08T12:07:23;17.15;;;11.27;;
53253;SDS011;39148;53.332;6.922;2023-02-08T12:10:00;14.43;;;10.55;;
53253;SDS011;39148;53.332;6.922;2023-02-08T12:12:48;16.67;;;11.45;;
53253;SDS011;39148;53.332;6.922;2023-02-08T12:18:11;16.67;;;11.75;;
53253;SDS011;39148;53.332;6.922;2023-02-08T12:20:43;14.32;;;10.30;;
53253;SDS011;39148;53.332;6.922;2023-02-08T12:26:04;15.38;;;10.55;;
53253;SDS011;39148;53.332;6.922;2023-02-08T12:28:46;16.17;;;10.82;;
53253;SDS011;39148;53.332;6.922;2023-02-08T12:36:55;15.25;;;9.98;;
53253;SDS011;39148;53.332;6.922;2023-02-08T12:42:36;13.90;;;9.90;;
53253;SDS011;39148;53.332;6.922;2023-02-08T12:53:53;14.50;;;10.23;;
53253;SDS011;39148;53.332;6.922;2023-02-08T12:56:20;14.30;;;9.20;;
53253;SDS011;39148;53.332;6.922;2023-02-08T12:58:55;12.32;;;9.00;;
53253;SDS011;39148;53.332;6.922;2023-02-08T13:01:25;12.85;;;8.95;;
53253;SDS011;39148;53.332;6.922;2023-02-08T13:04:01;12.00;;;9.05;;
53253;SDS011;39148;53.332;6.922;2023-02-08T13:06:35;12.65;;;8.77;;
53253;SDS011;39148;53.332;6.922;2023-02-08T13:09:05;14.20;;;9.32;;
53253;SDS011;39148;53.332;6.922;2023-02-08T13:11:40;13.77;;;9.50;;
53253;SDS011;39148;53.332;6.922;2023-02-08T13:16:46;13.85;;;9.10;;
53253;SDS011;39148;53.332;6.922;2023-02-08T13:21:50;12.85;;;9.00;;
53253;SDS011;39148;53.332;6.922;2023-02-08T13:27:05;12.82;;;8.23;;
53253;SDS011;39148;53.332;6.922;2023-02-08T13:29:33;12.80;;;8.13;;
53253;SDS011;39148;53.332;6.922;2023-02-08T13:32:05;11.75;;;8.65;;
53253;SDS011;39148;53.332;6.922;2023-02-08T13:36:58;11.90;;;7.65;;
53253;SDS011;39148;53.332;6.922;2023-02-08T13:42:00;11.30;;;7.75;;
53253;SDS011;39148;53.332;6.922;2023-02-08T13:44:35;11.70;;;8.27;;
53253;SDS011;39148;53.332;6.922;2023-02-08T13:47:03;11.40;;;8.07;;
53253;SDS011;39148;53.332;6.922;2023-02-08T13:49:40;11.35;;;8.25;;
53253;SDS011;39148;53.332;6.922;2023-02-08T13:52:10;13.20;;;7.90;;
53253;SDS011;39148;53.332;6.922;2023-02-08T13:57:50;10.10;;;7.18;;
53253;SDS011;39148;53.332;6.922;2023-02-08T14:00:20;11.10;;;8.35;;
53253;SDS011;39148;53.332;6.922;2023-02-08T14:05:49;10.38;;;7.55;;
53253;SDS011;39148;53.332;6.922;2023-02-08T14:48:15;10.13;;;6.43;;
53253;SDS011;39148;53.332;6.922;2023-02-08T14:58:42;10.68;;;6.55;;
53253;SDS011;39148;53.332;6.922;2023-02-08T15:01:17;9.95;;;6.57;;
53253;SDS011;39148;53.332;6.922;2023-02-08T15:03:44;9.18;;;6.10;;
53253;SDS011;39148;53.332;6.922;2023-02-08T15:08:41;10.88;;;7.05;;
53253;SDS011;39148;53.332;6.922;2023-02-08T15:11:17;9.15;;;6.00;;
53253;SDS011;39148;53.332;6.922;2023-02-08T15:13:47;9.15;;;5.97;;
53253;SDS011;39148;53.332;6.922;2023-02-08T15:16:14;9.45;;;6.15;;
53253;SDS011;39148;53.332;6.922;2023-02-08T15:18:40;9.43;;;6.10;;
53253;SDS011;39148;53.332;6.922;2023-02-08T15:21:17;10.00;;;6.32;;
53253;SDS011;39148;53.332;6.922;2023-02-08T15:26:28;8.93;;;5.55;;
53253;SDS011;39148;53.332;6.922;2023-02-08T15:28:54;9.20;;;5.85;;
53253;SDS011;39148;53.332;6.922;2023-02-08T15:31:22;9.48;;;6.53;;
53253;SDS011;39148;53.332;6.922;2023-02-08T15:33:48;7.82;;;5.35;;
53253;SDS011;39148;53.332;6.922;2023-02-08T15:36:20;8.57;;;5.63;;
53253;SDS011;39148;53.332;6.922;2023-02-08T15:38:46;8.93;;;5.80;;
53253;SDS011;39148;53.332;6.922;2023-02-08T15:41:14;9.35;;;5.80;;
53253;SDS011;39148;53.332;6.922;2023-02-08T15:43:41;8.65;;;5.43;;
53253;SDS011;39148;53.332;6.922;2023-02-08T15:46:19;9.02;;;5.75;;
53253;SDS011;39148;53.332;6.922;2023-02-08T15:48:46;8.70;;;5.88;;
53253;SDS011;39148;53.332;6.922;2023-02-08T15:51:14;9.40;;;5.72;;
53253;SDS011;39148;53.332;6.922;2023-02-08T15:53:44;9.35;;;5.88;;
53253;SDS011;39148;53.332;6.922;2023-02-08T15:56:14;8.52;;;5.75;;
53253;SDS011;39148;53.332;6.922;2023-02-08T15:58:43;8.55;;;5.28;;
53253;SDS011;39148;53.332;6.922;2023-02-08T16:01:16;7.80;;;5.20;;
53253;SDS011;39148;53.332;6.922;2023-02-08T16:03:47;8.10;;;5.20;;
53253;SDS011;39148;53.332;6.922;2023-02-08T16:06:18;7.93;;;5.35;;
53253;SDS011;39148;53.332;6.922;2023-02-08T16:08:49;8.18;;;5.32;;
53253;SDS011;39148;53.332;6.922;2023-02-08T16:11:34;8.52;;;5.75;;
53253;SDS011;39148;53.332;6.922;2023-02-08T16:14:01;8.45;;;5.20;;
53253;SDS011;39148;53.332;6.922;2023-02-08T16:19:01;8.00;;;4.88;;
53253;SDS011;39148;53.332;6.922;2023-02-08T16:23:58;7.53;;;4.78;;
53253;SDS011;39148;53.332;6.922;2023-02-08T16:26:25;7.07;;;4.57;;
53253;SDS011;39148;53.332;6.922;2023-02-08T16:28:57;8.20;;;5.18;;
53253;SDS011;39148;53.332;6.922;2023-02-08T16:31:24;8.20;;;5.10;;
53253;SDS011;39148;53.332;6.922;2023-02-08T16:34:01;7.53;;;4.95;;
53253;SDS011;39148;53.332;6.922;2023-02-08T16:36:33;7.13;;;4.68;;
53253;SDS011;39148;53.332;6.922;2023-02-08T16:44:23;6.97;;;4.10;;
53253;SDS011;39148;53.332;6.922;2023-02-08T16:46:50;7.93;;;5.05;;
53253;SDS011;39148;53.332;6.922;2023-02-08T16:49:16;7.95;;;4.80;;
53253;SDS011;39148;53.332;6.922;2023-02-08T16:51:42;7.07;;;4.70;;
53253;SDS011;39148;53.332;6.922;2023-02-08T16:54:16;8.32;;;4.82;;
53253;SDS011;39148;53.332;6.922;2023-02-08T16:56:44;8.23;;;4.80;;
53253;SDS011;39148;53.332;6.922;2023-02-08T16:59:13;6.63;;;4.05;;
53253;SDS011;39148;53.332;6.922;2023-02-08T17:01:40;6.57;;;4.18;;
53253;SDS011;39148;53.332;6.922;2023-02-08T17:04:11;6.90;;;4.30;;
53253;SDS011;39148;53.332;6.922;2023-02-08T17:06:39;6.78;;;3.97;;
53253;SDS011;39148;53.332;6.922;2023-02-08T17:09:07;8.05;;;4.57;;
53253;SDS011;39148;53.332;6.922;2023-02-08T17:11:35;7.68;;;4.50;;
53253;SDS011;39148;53.332;6.922;2023-02-08T17:14:01;6.35;;;3.92;;
53253;SDS011;39148;53.332;6.922;2023-02-08T17:16:29;7.32;;;4.07;;
53253;SDS011;39148;53.332;6.922;2023-02-08T17:18:57;7.18;;;4.30;;
53253;SDS011;39148;53.332;6.922;2023-02-08T17:21:24;6.00;;;3.85;;
53253;SDS011;39148;53.332;6.922;2023-02-08T17:23:51;6.28;;;3.97;;
53253;SDS011;39148;53.332;6.922;2023-02-08T17:26:18;7.10;;;4.10;;
53253;SDS011;39148;53.332;6.922;2023-02-08T17:28:46;6.95;;;4.13;;
53253;SDS011;39148;53.332;6.922;2023-02-08T17:31:15;6.97;;;4.38;;
53253;SDS011;39148;53.332;6.922;2023-02-08T17:33:41;7.22;;;4.45;;
53253;SDS011;39148;53.332;6.922;2023-02-08T17:36:08;7.40;;;4.35;;
53253;SDS011;39148;53.332;6.922;2023-02-08T17:38:34;6.45;;;4.00;;
53253;SDS011;39148;53.332;6.922;2023-02-08T17:41:14;6.10;;;3.90;;
53253;SDS011;39148;53.332;6.922;2023-02-08T17:43:41;7.30;;;4.10;;
53253;SDS011;39148;53.332;6.922;2023-02-08T17:46:08;7.25;;;4.15;;
53253;SDS011;39148;53.332;6.922;2023-02-08T17:48:39;7.18;;;4.45;;
53253;SDS011;39148;53.332;6.922;2023-02-08T17:51:09;7.07;;;4.20;;